Time;durP1;ratioP1;P1;durP2;ratioP2;P2;SDS_P1;SDS_P2;PMS_P1;PMS_P2;Temp;Humidity;BMP_temperature;BMP_pressure;BME280_temperature;BME280_humidity;BME280_pressure;Samples;Min_cycle;Max_cycle;Signal;HPM_P1;HPM_P2
2022/12/06 00:03:44;;;;;;;166.40;73.10;;;;;;;4.36;100.00;98740.76;214374;1310;25256;-74
2022/12/06 00:08:47;;;;;;;166.20;74.60;;;;;;;4.36;100.00;98737.63;214082;1310;24911;-73
2022/12/06 00:13:56;;;;;;;154.80;70.50;;;;;;;4.37;100.00;98733.02;214064;1306;22558;-74
2022/12/06 00:18:59;;;;;;;172.50;76.20;;;;;;;4.36;100.00;98724.69;214323;1310;22534;-75
2022/12/06 00:24:07;;;;;;;175.40;73.10;;;;;;;4.37;100.00;98722.67;214141;1310;25451;-74
2022/12/06 00:29:15;;;;;;;213.70;91.40;;;;;;;4.36;100.00;98718.11;214251;1310;22953;-74
2022/12/06 00:34:23;;;;;;;162.80;74.10;;;;;;;4.39;100.00;98711.15;214128;1310;22601;-74
2022/12/06 00:39:25;;;;;;;167.10;77.00;;;;;;;4.39;100.00;98706.15;214146;1310;24296;-74
2022/12/06 00:44:27;;;;;;;216.10;87.60;;;;;;;4.35;100.00;98703.98;214188;1310;22474;-73
2022/12/06 00:49:29;;;;;;;218.60;95.80;;;;;;;4.32;100.00;98700.40;214166;1310;23148;-74
2022/12/06 00:54:31;;;;;;;206.20;87.20;;;;;;;4.31;100.00;98692.70;213942;1310;22478;-75
2022/12/06 00:59:33;;;;;;;194.00;80.70;;;;;;;4.24;100.00;98681.49;214014;1310;22468;-74
2022/12/06 01:04:35;;;;;;;167.90;75.20;;;;;;;4.21;100.00;98669.15;213987;1310;24363;-74
2022/12/06 01:09:37;;;;;;;146.10;69.90;;;;;;;4.18;100.00;98658.19;214114;1298;22484;-74
2022/12/06 01:14:39;;;;;;;155.80;70.00;;;;;;;4.16;100.00;98654.14;213997;1305;22687;-74
2022/12/06 01:19:41;;;;;;;150.80;68.40;;;;;;;4.11;100.00;98649.48;214034;1308;22529;-74
2022/12/06 01:24:43;;;;;;;117.20;55.40;;;;;;;4.12;100.00;98650.27;214073;1310;25411;-73
2022/12/06 01:29:44;;;;;;;140.80;64.80;;;;;;;4.08;100.00;98646.36;213995;1312;24321;-73
2022/12/06 01:34:50;;;;;;;139.80;62.90;;;;;;;4.05;100.00;98632.29;213867;1311;24387;-74
2022/12/06 01:39:52;;;;;;;143.50;60.80;;;;;;;4.06;100.00;98625.83;213897;1313;22507;-74
2022/12/06 01:44:59;;;;;;;128.20;59.30;;;;;;;4.09;100.00;98618.02;214105;1310;22495;-75
2022/12/06 01:50:25;;;;;;;114.50;53.50;;;;;;;4.12;100.00;98610.09;214167;1313;23105;-74
2022/12/06 01:55:31;;;;;;;122.60;57.80;;;;;;;4.14;100.00;98606.09;214131;1311;22507;-74
2022/12/06 02:00:34;;;;;;;111.30;52.90;;;;;;;4.14;100.00;98602.21;213936;1313;24073;-73
2022/12/06 02:05:37;;;;;;;118.70;53.30;;;;;;;4.14;100.00;98593.78;213988;1313;22584;-72
2022/12/06 02:10:41;;;;;;;91.70;45.50;;;;;;;4.11;100.00;98586.06;213987;1312;22477;-74
2022/12/06 02:15:43;;;;;;;115.50;52.80;;;;;;;4.08;100.00;98567.69;214026;1307;22495;-73
2022/12/06 02:21:03;;;;;;;126.40;56.30;;;;;;;4.08;100.00;98558.58;214153;1303;22933;-73
2022/12/06 02:26:17;;;;;;;102.00;46.90;;;;;;;4.12;100.00;98564.08;214035;1313;24297;-74
2022/12/06 02:31:27;;;;;;;111.40;51.30;;;;;;;4.09;100.00;98557.24;214042;1312;22501;-73
2022/12/06 02:36:37;;;;;;;130.80;57.30;;;;;;;4.10;100.00;98542.63;214214;1306;25525;-73
2022/12/06 02:41:50;;;;;;;123.80;55.80;;;;;;;4.13;100.00;98529.40;214201;1310;25373;-73
2022/12/06 02:46:55;;;;;;;128.90;53.70;;;;;;;4.12;100.00;98527.42;214231;1311;25238;-73
2022/12/06 02:51:57;;;;;;;130.60;55.70;;;;;;;4.15;100.00;98526.08;214010;1311;22581;-74
2022/12/06 02:56:59;;;;;;;131.10;55.10;;;;;;;4.19;100.00;98529.02;214060;1309;23215;-73
2022/12/06 03:02:05;;;;;;;125.50;53.60;;;;;;;4.21;100.00;98529.95;214225;1312;22538;-73
2022/12/06 03:07:33;;;;;;;112.70;47.80;;;;;;;4.23;100.00;98515.01;214039;1313;22472;-72
2022/12/06 03:13:03;;;;;;;115.40;47.70;;;;;;;4.26;100.00;98511.80;214249;1295;22636;-73
2022/12/06 03:18:10;;;;;;;;;;;;;;;4.29;100.00;98490.71;214249;1313;24357;-72
2022/12/06 03:23:26;;;;;;;94.10;39.70;;;;;;;4.31;100.00;98499.69;214130;1312;25329;-74
2022/12/06 03:28:29;;;;;;;99.30;43.20;;;;;;;4.33;100.00;98504.58;214289;1312;22495;-74
2022/12/06 03:33:33;;;;;;;94.50;42.50;;;;;;;4.36;100.00;98509.27;214239;1313;22457;-74
2022/12/06 03:38:53;;;;;;;91.30;38.00;;;;;;;4.39;100.00;98517.05;214126;1312;22474;-74
2022/12/06 03:43:55;;;;;;;86.10;39.00;;;;;;;4.34;100.00;98530.15;214392;1310;24253;-74
2022/12/06 03:49:01;;;;;;;105.80;42.90;;;;;;;4.32;100.00;98524.15;214061;1313;25228;-74
2022/12/06 03:54:05;;;;;;;105.00;46.60;;;;;;;4.38;100.00;98514.01;214326;1313;22508;-74
2022/12/06 03:59:09;;;;;;;98.80;44.30;;;;;;;4.42;100.00;98501.21;214188;1311;22520;-73
2022/12/06 04:04:11;;;;;;;114.00;44.50;;;;;;;4.46;100.00;98490.88;214091;1313;24262;-73
2022/12/06 04:14:38;;;;;;;92.40;40.70;;;;;;;4.51;100.00;98491.40;214080;1313;22609;-76
2022/12/06 04:19:39;;;;;;;101.20;43.10;;;;;;;4.50;100.00;98482.36;214082;1311;25294;-76
2022/12/06 04:24:41;;;;;;;114.70;46.70;;;;;;;4.50;100.00;98482.27;214202;1312;22467;-76
2022/12/06 04:40:24;;;;;;;92.90;41.60;;;;;;;4.47;100.00;98474.98;215202;1312;25261;-76
2022/12/06 04:45:26;;;;;;;171.00;62.20;;;;;;;4.44;100.00;98477.56;214782;1311;25358;-76
2022/12/06 04:50:28;;;;;;;184.80;67.10;;;;;;;4.45;100.00;98473.06;214758;1295;22501;-77
2022/12/06 04:55:30;;;;;;;181.60;67.80;;;;;;;4.47;100.00;98476.73;214302;1310;22485;-79
2022/12/06 05:00:32;;;;;;;158.10;58.10;;;;;;;4.49;100.00;98465.34;214159;1312;22597;-79
2022/12/06 05:05:34;;;;;;;135.00;53.40;;;;;;;4.49;100.00;98454.78;214171;1312;24345;-80
2022/12/06 05:10:36;;;;;;;113.90;45.20;;;;;;;4.45;100.00;98446.27;213973;1310;22557;-79
2022/12/06 05:15:38;;;;;;;143.00;55.30;;;;;;;4.42;100.00;98451.39;214120;1310;25245;-80
2022/12/06 05:20:40;;;;;;;140.40;53.70;;;;;;;4.43;100.00;98463.48;214257;1312;25257;-77
2022/12/06 05:25:42;;;;;;;112.70;45.90;;;;;;;4.44;100.00;98453.69;214949;1313;25448;-78
2022/12/06 05:30:43;;;;;;;135.40;49.90;;;;;;;4.40;100.00;98452.61;214994;1310;25346;-79
2022/12/06 05:35:45;;;;;;;123.00;47.30;;;;;;;4.40;100.00;98449.10;216113;1312;26378;-80
2022/12/06 05:40:47;;;;;;;132.40;50.00;;;;;;;4.40;100.00;98443.27;216313;1311;22487;-77
2022/12/06 05:45:52;;;;;;;134.10;48.00;;;;;;;4.43;100.00;98432.04;214425;1312;22478;-79
2022/12/06 05:50:54;;;;;;;146.40;52.80;;;;;;;4.43;100.00;98438.02;214165;1312;24253;-78
2022/12/06 05:56:03;;;;;;;142.30;54.30;;;;;;;4.42;100.00;98435.32;214063;1313;24401;-78
2022/12/06 06:01:07;;;;;;;132.70;47.70;;;;;;;4.43;100.00;98430.66;214047;1311;25270;-78
2022/12/06 06:06:09;;;;;;;141.20;51.20;;;;;;;4.39;100.00;98424.95;214171;1313;22568;-78
2022/12/06 06:11:11;;;;;;;142.20;51.10;;;;;;;4.36;100.00;98426.00;214153;1303;24782;-79
2022/12/06 06:16:13;;;;;;;139.20;48.20;;;;;;;4.37;100.00;98424.89;214142;1311;22535;-78
2022/12/06 06:21:15;;;;;;;120.60;44.70;;;;;;;4.35;100.00;98418.35;214172;1312;22509;-78
2022/12/06 06:26:17;;;;;;;122.50;45.40;;;;;;;4.32;100.00;98416.17;214150;1312;22461;-79
2022/12/06 06:31:18;;;;;;;130.10;47.40;;;;;;;4.32;100.00;98411.75;214246;1281;25662;-77
2022/12/06 06:36:20;;;;;;;133.20;48.00;;;;;;;4.30;100.00;98400.40;214661;1310;23259;-77
2022/12/06 06:41:22;;;;;;;111.30;43.20;;;;;;;4.26;100.00;98400.42;214635;1310;25363;-77
2022/12/06 06:46:24;;;;;;;127.20;46.10;;;;;;;4.25;100.00;98401.58;214747;1296;22486;-77
2022/12/06 06:51:27;;;;;;;112.40;44.70;;;;;;;4.27;100.00;98393.59;214321;1296;24276;-77
2022/12/06 06:56:28;;;;;;;127.00;47.20;;;;;;;4.29;100.00;98382.85;214703;1299;22504;-77
2022/12/06 07:01:30;;;;;;;124.00;46.20;;;;;;;4.28;100.00;98383.36;214665;1284;24292;-78
2022/12/06 07:06:32;;;;;;;103.60;42.50;;;;;;;4.24;100.00;98385.30;214823;1281;22527;-78
2022/12/06 07:11:34;;;;;;;96.00;38.50;;;;;;;4.24;100.00;98382.59;214754;1284;138935;-76
2022/12/06 07:16:36;;;;;;;138.40;48.80;;;;;;;4.25;100.00;98382.77;215292;1282;139015;-75
2022/12/06 07:21:38;;;;;;;114.50;41.60;;;;;;;4.26;100.00;98376.41;214717;1284;139030;-78
2022/12/06 07:26:40;;;;;;;110.70;42.00;;;;;;;4.26;100.00;98377.89;214920;1284;22506;-77
2022/12/06 07:31:42;;;;;;;115.70;42.20;;;;;;;4.26;100.00;98378.95;214543;1284;138871;-77
2022/12/06 07:36:44;;;;;;;114.00;41.20;;;;;;;4.27;100.00;98380.13;214620;1284;139187;-78
2022/12/06 07:47:09;;;;;;;123.60;44.30;;;;;;;4.35;100.00;98382.45;214814;1284;139089;-75
2022/12/06 07:52:11;;;;;;;121.20;42.90;;;;;;;4.37;100.00;98376.03;214578;1284;139275;-77
2022/12/06 07:57:13;;;;;;;133.70;47.70;;;;;;;4.39;100.00;98367.56;214530;1287;139160;-77
2022/12/06 08:02:18;;;;;;;126.00;45.20;;;;;;;4.46;100.00;98365.27;214581;1284;22480;-77
2022/12/06 08:07:21;;;;;;;132.90;48.30;;;;;;;4.52;100.00;98365.51;214600;1287;138895;-76
2022/12/06 08:12:23;;;;;;;133.30;46.40;;;;;;;4.58;100.00;98365.64;215148;1284;138949;-78
2022/12/06 08:17:25;;;;;;;120.10;45.80;;;;;;;4.62;100.00;98366.71;214717;1284;139067;-76
2022/12/06 08:22:27;;;;;;;120.20;42.90;;;;;;;4.64;100.00;98365.02;214405;1280;139153;-75
2022/12/06 08:27:29;;;;;;;143.20;48.10;;;;;;;4.65;100.00;98364.71;214464;1284;139184;-77
2022/12/06 08:32:31;;;;;;;128.40;47.00;;;;;;;4.68;100.00;98367.05;214426;1284;22559;-75
2022/12/06 08:37:33;;;;;;;151.30;50.40;;;;;;;4.71;100.00;98369.24;214326;1289;138759;-77
2022/12/06 08:42:35;;;;;;;165.40;52.70;;;;;;;4.73;100.00;98371.27;214494;1285;139061;-76
2022/12/06 08:47:37;;;;;;;115.30;44.00;;;;;;;4.68;100.00;98371.77;214316;1284;139140;-76
2022/12/06 08:52:39;;;;;;;152.70;55.30;;;;;;;4.61;100.00;98366.30;214554;1289;139518;-76
2022/12/06 08:57:41;;;;;;;147.90;52.10;;;;;;;4.58;100.00;98368.66;214719;1284;139217;-77
2022/12/06 09:02:43;;;;;;;160.00;59.10;;;;;;;4.56;100.00;98360.91;214541;1289;22637;-77
2022/12/06 09:07:44;;;;;;;127.80;52.50;;;;;;;4.52;100.00;98356.17;214611;1286;138827;-76
2022/12/06 09:12:46;;;;;;;103.80;45.80;;;;;;;4.48;100.00;98354.98;215262;1284;139047;-76
2022/12/06 09:17:48;;;;;;;131.10;52.50;;;;;;;4.47;100.00;98354.45;214594;1295;139692;-77
2022/12/06 09:22:50;;;;;;;124.90;52.20;;;;;;;4.48;100.00;98350.99;214559;1288;139016;-77
2022/12/06 09:27:52;;;;;;;101.30;46.40;;;;;;;4.49;100.00;98352.55;214484;1290;139078;-77
2022/12/06 09:32:54;;;;;;;100.40;45.90;;;;;;;4.51;100.00;98342.69;214592;1287;25257;-75
2022/12/06 09:37:57;;;;;;;91.70;42.80;;;;;;;4.52;100.00;98339.52;214807;1295;23196;-77
2022/12/06 09:43:34;;;;;;;101.20;44.30;;;;;;;4.52;100.00;98338.18;214584;1288;138732;-77
2022/12/06 09:48:42;;;;;;;113.70;48.00;;;;;;;4.54;100.00;98328.38;215628;1281;139035;-78
2022/12/06 09:54:07;;;;;;;104.40;43.80;;;;;;;4.59;100.00;98320.23;215573;1298;139578;-77
2022/12/06 09:59:30;;;;;;;108.80;43.70;;;;;;;4.66;100.00;98311.71;215183;1292;139441;-77
2022/12/06 10:05:06;;;;;;;67.80;32.90;;;;;;;4.71;100.00;98311.98;214733;1284;139034;-77
2022/12/06 10:10:30;;;;;;;57.40;26.50;;;;;;;4.65;100.00;98312.60;214840;1287;138880;-77
2022/12/06 10:15:50;;;;;;;46.90;22.70;;;;;;;4.62;100.00;98313.13;215185;1281;139001;-77
2022/12/06 10:20:56;;;;;;;31.20;15.60;;;;;;;4.60;100.00;98305.59;214827;1285;22637;-75
2022/12/06 10:26:33;;;;;;;19.30;10.10;;;;;;;4.53;100.00;98303.97;214681;1281;23743;-76
2022/12/06 10:31:48;;;;;;;18.20;8.70;;;;;;;4.44;100.00;98305.73;214662;1281;138903;-77
2022/12/06 10:37:06;;;;;;;13.10;7.70;;;;;;;4.36;100.00;98301.30;214587;1284;138573;-76
2022/12/06 10:42:21;;;;;;;15.30;8.40;;;;;;;4.29;100.00;98299.26;214392;1307;138842;-76
2022/12/06 10:47:43;;;;;;;14.10;8.30;;;;;;;4.30;100.00;98291.58;214629;1295;139348;-77
2022/12/06 10:53:11;;;;;;;16.40;8.90;;;;;;;4.26;100.00;98285.35;214679;1303;138861;-77
2022/12/06 10:58:58;;;;;;;14.00;7.90;;;;;;;4.20;100.00;98278.16;214517;1294;138958;-78
2022/12/06 11:04:12;;;;;;;18.10;9.30;;;;;;;4.11;100.00;98273.25;214823;1281;138694;-76
2022/12/06 11:09:33;;;;;;;16.60;8.30;;;;;;;4.03;100.00;98267.27;214720;1284;138770;-79
2022/12/06 11:14:40;;;;;;;16.10;8.50;;;;;;;3.92;100.00;98269.39;215555;1303;22519;-78
2022/12/06 11:19:59;;;;;;;17.50;9.10;;;;;;;3.86;100.00;98262.69;214728;1295;138427;-78
2022/12/06 11:25:31;;;;;;;11.70;6.40;;;;;;;3.86;100.00;98269.30;214692;1291;138598;-78
2022/12/06 11:30:33;;;;;;;12.60;6.20;;;;;;;3.89;100.00;98268.69;214472;1303;138552;-77
2022/12/06 11:35:35;;;;;;;10.20;6.00;;;;;;;3.92;100.00;98264.52;214649;1290;141224;-77
2022/12/06 11:40:43;;;;;;;11.40;5.60;;;;;;;3.94;100.00;98258.27;214831;1288;139225;-77
2022/12/06 11:45:47;;;;;;;11.60;6.10;;;;;;;4.01;100.00;98259.56;214585;1294;138684;-77
2022/12/06 11:50:51;;;;;;;8.90;5.10;;;;;;;4.10;100.00;98258.77;214600;1286;22475;-76
2022/12/06 11:55:59;;;;;;;13.10;7.00;;;;;;;4.20;100.00;98257.48;214954;1286;138343;-75
2022/12/06 12:01:04;;;;;;;10.30;6.50;;;;;;;4.25;100.00;98255.29;214696;1288;138523;-77
2022/12/06 12:06:22;;;;;;;12.20;6.80;;;;;;;4.29;100.00;98253.65;214514;1287;138792;-76
2022/12/06 12:11:28;;;;;;;10.80;5.90;;;;;;;4.27;100.00;98249.56;214864;1298;138819;-76
2022/12/06 12:16:45;;;;;;;7.90;5.10;;;;;;;4.25;100.00;98236.46;215035;1310;138792;-76
2022/12/06 12:21:48;;;;;;;9.50;5.40;;;;;;;4.24;100.00;98239.38;214644;1287;138854;-76
2022/12/06 12:26:55;;;;;;;11.40;6.00;;;;;;;4.20;100.00;98241.15;214595;1291;25208;-77
2022/12/06 12:31:58;;;;;;;15.50;7.90;;;;;;;4.13;100.00;98235.73;214627;1289;138243;-77
2022/12/06 12:37:03;;;;;;;13.50;6.30;;;;;;;4.05;100.00;98233.25;214611;1288;138882;-76
2022/12/06 12:42:26;;;;;;;13.00;6.90;;;;;;;3.94;100.00;98238.50;214458;1289;138990;-77
2022/12/06 12:47:30;;;;;;;15.10;8.00;;;;;;;3.81;100.00;98235.73;214492;1281;140265;-76
2022/12/06 12:52:37;;;;;;;12.00;7.10;;;;;;;3.71;100.00;98234.73;214458;1298;139112;-77
2022/12/06 12:57:42;;;;;;;13.20;6.30;;;;;;;3.61;100.00;98233.45;214557;1288;139384;-76
2022/12/06 13:02:50;;;;;;;15.40;8.10;;;;;;;3.49;100.00;98230.40;214595;1310;24429;-76
2022/12/06 13:07:58;;;;;;;15.80;8.40;;;;;;;3.39;100.00;98221.29;214614;1287;138858;-78
2022/12/06 13:13:20;;;;;;;11.40;6.00;;;;;;;3.31;100.00;98223.08;218878;1295;139178;-77
2022/12/06 13:18:54;;;;;;;10.70;6.30;;;;;;;3.29;100.00;98233.23;215474;1279;139123;-77
2022/12/06 13:24:08;;;;;;;11.20;6.50;;;;;;;3.25;100.00;98235.73;214303;1281;138862;-77
2022/12/06 13:29:22;;;;;;;7.20;4.70;;;;;;;3.24;100.00;98234.67;214578;1281;138785;-77
2022/12/06 13:34:31;;;;;;;7.70;4.60;;;;;;;3.20;100.00;98235.70;214614;1285;138572;-76
2022/12/06 13:39:39;;;;;;;9.50;5.20;;;;;;;3.18;100.00;98237.33;214663;1304;139060;-76
2022/12/06 13:44:47;;;;;;;11.60;5.70;;;;;;;3.17;100.00;98234.98;214756;1281;22473;-76
2022/12/06 13:49:48;;;;;;;11.20;6.30;;;;;;;3.19;100.00;98234.27;214660;1282;138724;-76
2022/12/06 13:54:50;;;;;;;10.10;5.50;;;;;;;3.22;100.00;98238.68;214675;1281;142959;-76
2022/12/06 13:59:52;;;;;;;8.70;5.40;;;;;;;3.28;100.00;98234.23;214693;1281;139212;-76
2022/12/06 14:04:54;;;;;;;9.50;5.00;;;;;;;3.23;100.00;98230.23;214593;1281;138668;-77
2022/12/06 14:09:56;;;;;;;10.90;6.00;;;;;;;3.16;100.00;98233.66;214640;1284;139173;-77
2022/12/06 14:15:01;;;;;;;9.10;5.40;;;;;;;3.08;100.00;98229.20;215109;1288;138744;-77
2022/12/06 14:20:19;;;;;;;7.30;4.30;;;;;;;3.01;100.00;98228.25;214403;1287;22612;-76
2022/12/06 14:25:27;;;;;;;8.50;5.20;;;;;;;2.94;100.00;98240.05;214505;1310;138743;-77
2022/12/06 14:30:29;;;;;;;10.60;6.10;;;;;;;2.90;100.00;98240.21;214652;1298;138666;-77
2022/12/06 14:35:37;;;;;;;8.80;5.00;;;;;;;2.87;100.00;98236.11;214371;1281;138895;-75
2022/12/06 14:46:06;;;;;;;8.60;5.80;;;;;;;2.71;100.00;98237.04;214666;1280;138663;-77
2022/12/06 14:51:25;;;;;;;9.50;5.50;;;;;;;2.66;100.00;98234.60;214747;1287;139024;-75
2022/12/06 14:56:34;;;;;;;9.80;5.50;;;;;;;2.65;100.00;98233.48;214720;1287;22481;-76
2022/12/06 15:01:47;;;;;;;7.90;5.20;;;;;;;2.57;100.00;98238.32;214965;1281;139093;-75
2022/12/06 15:06:55;;;;;;;10.30;5.30;;;;;;;2.49;100.00;98234.33;214286;1298;22556;-76
2022/12/06 15:17:42;;;;;;;10.00;4.90;;;;;;;2.36;100.00;98244.22;214298;1310;22518;-76
2022/12/06 15:22:45;;;;;;;17.40;6.80;;;;;;;2.26;100.00;98247.23;214133;1310;25439;-77
2022/12/06 15:27:47;;;;;;;25.10;9.70;;;;;;;2.16;100.00;98252.19;214140;1310;22490;-77
2022/12/06 15:32:48;;;;;;;41.50;16.20;;;;;;;2.18;100.00;98254.00;214319;1304;24320;-76
2022/12/06 15:37:50;;;;;;;27.60;12.80;;;;;;;2.22;100.00;98256.54;214077;1310;23565;-77
2022/12/06 15:42:52;;;;;;;26.20;11.40;;;;;;;2.18;100.00;98256.92;214343;1310;24630;-77
2022/12/06 15:48:01;;;;;;;20.80;8.90;;;;;;;2.15;100.00;98256.67;214078;1310;22472;-76
2022/12/06 15:53:02;;;;;;;25.70;13.40;;;;;;;2.11;100.00;98261.23;214322;1310;22866;-76
2022/12/06 15:58:04;;;;;;;22.70;10.10;;;;;;;2.11;100.00;98263.48;214120;1310;22472;-76
2022/12/06 16:03:07;;;;;;;25.70;10.00;;;;;;;2.12;100.00;98256.52;214117;1310;22514;-76
2022/12/06 16:08:08;;;;;;;18.50;9.50;;;;;;;2.12;100.00;98259.33;214366;1310;22950;-77
2022/12/06 16:13:20;;;;;;;21.50;10.80;;;;;;;2.03;100.00;98258.38;214205;1310;26476;-77
2022/12/06 16:18:22;;;;;;;24.70;10.30;;;;;;;1.98;100.00;98254.45;214194;1310;22595;-77
2022/12/06 16:29:22;;;;;;;20.10;8.60;;;;;;;1.97;100.00;98255.98;214081;1298;22633;-76
2022/12/06 16:34:24;;;;;;;17.10;8.40;;;;;;;1.99;100.00;98253.30;214237;1310;22483;-77
2022/12/06 16:39:27;;;;;;;12.60;7.60;;;;;;;1.94;100.00;98257.35;214102;1310;25445;-77
2022/12/06 16:44:29;;;;;;;12.80;6.90;;;;;;;1.86;100.00;98262.70;214265;1310;25288;-76
2022/12/06 16:49:32;;;;;;;13.10;6.40;;;;;;;1.83;100.00;98263.02;214103;1310;22471;-77
2022/12/06 16:54:50;;;;;;;9.30;5.70;;;;;;;1.77;100.00;98268.75;214167;1310;23231;-77
2022/12/06 16:59:51;;;;;;;12.90;7.00;;;;;;;1.71;100.00;98267.61;214178;1310;22471;-76
2022/12/06 17:04:55;;;;;;;10.30;5.60;;;;;;;1.67;100.00;98268.88;214331;1310;22699;-76
2022/12/06 17:09:57;;;;;;;11.00;6.40;;;;;;;1.60;100.00;98267.88;214237;1310;25212;-78
2022/12/06 17:14:59;;;;;;;10.70;5.70;;;;;;;1.53;100.00;98266.83;214288;1310;25392;-78
2022/12/06 17:20:01;;;;;;;12.90;6.40;;;;;;;1.39;100.00;98269.41;214120;1297;22500;-76
2022/12/06 17:25:04;;;;;;;10.90;5.60;;;;;;;1.31;100.00;98271.94;214155;1310;22484;-77
2022/12/06 17:30:11;;;;;;;11.80;6.30;;;;;;;1.26;100.00;98272.92;213981;1310;23177;-77
2022/12/06 17:35:13;;;;;;;11.20;6.60;;;;;;;1.14;100.00;98270.77;214050;1310;22607;-77
2022/12/06 17:40:15;;;;;;;14.80;7.10;;;;;;;0.95;100.00;98274.19;214092;1310;22467;-78
2022/12/06 17:45:16;;;;;;;10.70;6.00;;;;;;;0.83;100.00;98273.45;214087;1310;22499;-77
2022/12/06 17:50:25;;;;;;;10.20;5.70;;;;;;;0.74;100.00;98271.66;214138;1310;22475;-78
2022/12/06 17:55:27;;;;;;;12.30;6.50;;;;;;;0.65;100.00;98272.62;214070;1310;22575;-78
2022/12/06 18:00:28;;;;;;;13.80;7.90;;;;;;;0.54;100.00;98269.77;214083;1310;25312;-78
2022/12/06 18:05:30;;;;;;;16.70;9.10;;;;;;;0.44;100.00;98271.19;214311;1310;22485;-79
2022/12/06 18:10:33;;;;;;;14.50;7.80;;;;;;;0.42;100.00;98272.41;214316;1303;22988;-78
2022/12/06 18:15:37;;;;;;;18.90;10.70;;;;;;;0.41;100.00;98272.91;214259;1288;22476;-78
2022/12/06 18:20:41;;;;;;;18.70;10.00;;;;;;;0.44;100.00;98270.95;214130;1306;22474;-77
2022/12/06 18:25:43;;;;;;;14.60;7.90;;;;;;;0.45;100.00;98265.48;214019;1310;22754;-77
2022/12/06 18:30:45;;;;;;;14.20;8.10;;;;;;;0.43;100.00;98259.34;214099;1306;22512;-76
2022/12/06 18:35:51;;;;;;;12.80;7.30;;;;;;;0.39;100.00;98257.27;214031;1310;22449;-77
2022/12/06 18:41:01;;;;;;;12.80;7.20;;;;;;;0.37;100.00;98259.06;214109;1310;22607;-76
2022/12/06 18:46:08;;;;;;;20.30;9.70;;;;;;;0.37;100.00;98252.48;214161;1310;22662;-77
2022/12/06 18:51:19;;;;;;;18.10;8.90;;;;;;;0.42;100.00;98254.21;214173;1303;22471;-79
2022/12/06 18:56:23;;;;;;;21.30;10.20;;;;;;;0.43;100.00;98253.75;214221;1310;24417;-76
2022/12/06 19:01:34;;;;;;;18.30;9.30;;;;;;;0.38;100.00;98260.14;214174;1310;22736;-77
2022/12/06 19:06:36;;;;;;;22.90;11.20;;;;;;;0.32;100.00;98256.83;214400;1310;25333;-78
2022/12/06 19:11:41;;;;;;;26.80;11.00;;;;;;;0.27;100.00;98260.26;214082;1301;22466;-76
2022/12/06 19:16:46;;;;;;;19.40;10.30;;;;;;;0.23;100.00;98259.95;214405;1310;22488;-79
2022/12/06 19:21:50;;;;;;;18.20;10.50;;;;;;;0.19;100.00;98260.41;214057;1310;22475;-79
2022/12/06 19:26:53;;;;;;;16.30;8.40;;;;;;;0.16;100.00;98263.15;214043;1310;23749;-77
2022/12/06 19:31:55;;;;;;;18.50;9.70;;;;;;;0.15;100.00;98264.42;214195;1310;22479;-76
2022/12/06 19:36:57;;;;;;;20.30;9.70;;;;;;;0.17;100.00;98262.58;214132;1310;22499;-78
2022/12/06 19:47:19;;;;;;;24.20;11.20;;;;;;;0.17;100.00;98266.70;214122;1310;26574;-78
2022/12/06 19:52:22;;;;;;;17.40;9.70;;;;;;;0.18;100.00;98259.23;214088;1310;25344;-78
2022/12/06 19:57:31;;;;;;;19.20;10.10;;;;;;;0.20;100.00;98252.98;214044;1312;22798;-77
2022/12/06 20:02:33;;;;;;;17.10;8.60;;;;;;;0.21;100.00;98252.48;214126;1311;22485;-78
2022/12/06 20:07:35;;;;;;;23.80;11.30;;;;;;;0.19;100.00;98253.61;214287;1312;24140;-79
2022/12/06 20:12:37;;;;;;;21.00;11.00;;;;;;;0.20;100.00;98248.77;214121;1312;23452;-78
2022/12/06 20:17:40;;;;;;;23.70;11.30;;;;;;;0.21;100.00;98248.70;214107;1310;25247;-79
2022/12/06 20:22:42;;;;;;;17.90;9.30;;;;;;;0.24;100.00;98249.80;214137;1312;24078;-78
2022/12/06 20:27:50;;;;;;;14.60;8.10;;;;;;;0.23;100.00;98252.16;214089;1298;22487;-77
2022/12/06 20:32:52;;;;;;;17.20;8.90;;;;;;;0.21;100.00;98255.77;214109;1313;22507;-77
2022/12/06 20:37:54;;;;;;;14.10;7.40;;;;;;;0.20;100.00;98253.63;214196;1312;23625;-79
2022/12/06 20:42:56;;;;;;;13.00;6.40;;;;;;;0.17;100.00;98242.24;214194;1310;25407;-78
2022/12/06 20:47:57;;;;;;;21.40;9.70;;;;;;;0.14;100.00;98237.13;214113;1311;22477;-78
2022/12/06 20:52:59;;;;;;;13.60;7.10;;;;;;;0.15;100.00;98236.27;214295;1312;25408;-78
2022/12/06 20:58:01;;;;;;;15.20;7.00;;;;;;;0.16;100.00;98235.33;214097;1312;25380;-78
2022/12/06 21:03:03;;;;;;;16.00;7.40;;;;;;;0.15;100.00;98233.38;214121;1312;24843;-78
2022/12/06 21:08:05;;;;;;;15.00;7.90;;;;;;;0.16;100.00;98229.42;214135;1312;22472;-77
2022/12/06 21:13:07;;;;;;;17.60;8.80;;;;;;;0.20;100.00;98229.65;214177;1313;24799;-78
2022/12/06 21:18:09;;;;;;;13.60;7.60;;;;;;;0.25;100.00;98238.61;213931;1312;22497;-77
2022/12/06 21:23:11;;;;;;;16.00;8.40;;;;;;;0.30;100.00;98238.28;213985;1312;22465;-77
2022/12/06 21:28:13;;;;;;;18.80;9.30;;;;;;;0.32;100.00;98237.42;214121;1311;22465;-78
2022/12/06 21:33:14;;;;;;;19.80;8.70;;;;;;;0.33;100.00;98234.65;214098;1312;22472;-77
2022/12/06 21:38:16;;;;;;;16.70;8.60;;;;;;;0.35;100.00;98235.91;214106;1311;22550;-78
2022/12/06 21:43:18;;;;;;;19.20;8.80;;;;;;;0.35;100.00;98235.38;214068;1313;22475;-78
2022/12/06 21:48:20;;;;;;;18.20;8.90;;;;;;;0.34;100.00;98240.75;214285;1312;22541;-77
2022/12/06 21:53:21;;;;;;;19.30;9.00;;;;;;;0.36;100.00;98237.33;214185;1312;22475;-81
2022/12/06 21:58:24;;;;;;;17.30;8.80;;;;;;;0.38;100.00;98236.79;214088;1312;25469;-77
2022/12/06 22:03:25;;;;;;;16.80;8.70;;;;;;;0.37;100.00;98232.19;213990;1310;22465;-77
2022/12/06 22:08:27;;;;;;;20.50;10.60;;;;;;;0.37;100.00;98231.13;214167;1312;25271;-77
2022/12/06 22:13:35;;;;;;;26.60;12.70;;;;;;;0.35;100.00;98229.31;214350;1295;22468;-78
2022/12/06 22:18:38;;;;;;;28.90;14.10;;;;;;;0.33;100.00;98225.85;214118;1312;22615;-77
2022/12/06 22:23:47;;;;;;;32.00;15.40;;;;;;;0.34;100.00;98226.44;214164;1312;22460;-77
2022/12/06 22:28:49;;;;;;;28.90;14.80;;;;;;;0.33;100.00;98226.16;214232;1312;24255;-77
2022/12/06 22:33:52;;;;;;;29.40;14.60;;;;;;;0.33;100.00;98226.95;214177;1312;22491;-76
2022/12/06 22:38:56;;;;;;;30.20;14.20;;;;;;;0.34;100.00;98221.70;214110;1312;92311;-78
2022/12/06 22:44:01;;;;;;;30.20;13.30;;;;;;;0.37;100.00;98219.39;214125;1307;22475;-77
2022/12/06 22:49:04;;;;;;;25.30;13.20;;;;;;;0.39;100.00;98215.98;214197;1313;22523;-77
2022/12/06 22:54:10;;;;;;;27.70;12.00;;;;;;;0.40;100.00;98216.45;214172;1307;22491;-77
2022/12/06 22:59:12;;;;;;;29.40;13.70;;;;;;;0.41;100.00;98217.77;214389;1310;22659;-77
2022/12/06 23:04:14;;;;;;;32.00;14.00;;;;;;;0.41;100.00;98213.02;214189;1313;22585;-78
2022/12/06 23:09:16;;;;;;;30.60;14.20;;;;;;;0.40;100.00;98206.48;214223;1312;24310;-78
2022/12/06 23:14:18;;;;;;;34.30;14.50;;;;;;;0.40;100.00;98207.70;214110;1312;22490;-77
2022/12/06 23:19:19;;;;;;;32.30;14.60;;;;;;;0.41;100.00;98200.96;214144;1311;25471;-77
2022/12/06 23:24:21;;;;;;;29.20;13.10;;;;;;;0.41;100.00;98196.43;214111;1312;22972;-76
2022/12/06 23:29:23;;;;;;;28.50;13.50;;;;;;;0.40;100.00;98192.45;214208;1306;24873;-77
2022/12/06 23:34:25;;;;;;;29.70;14.70;;;;;;;0.40;100.00;98188.48;214171;1312;25276;-75
2022/12/06 23:39:27;;;;;;;29.10;14.40;;;;;;;0.38;100.00;98187.20;214223;1310;22964;-77
2022/12/06 23:44:29;;;;;;;29.10;14.30;;;;;;;0.37;100.00;98178.48;214168;1312;22486;-77
2022/12/06 23:49:30;;;;;;;31.20;14.00;;;;;;;0.35;100.00;98174.57;214084;1312;22534;-77
2022/12/06 23:54:32;;;;;;;35.40;15.00;;;;;;;0.34;100.00;98167.69;214124;1313;22486;-77